Аэропорт: Актобе. Актобе

ICAO: UATT

METAR:
2023-03-31 15:30:00
UATT 311530Z 11006MPS CAVOK 12/05 Q1017 NOSIG RMK QFE743/0991
METAR:
2023-03-31 11:56:00
TAF AMD UATT 311156Z 3112/0112 11010MPS 9999 BKN033CB TX15/0110Z TN03/3121Z TEMPO 3112/3115 13015MPS TEMPO 3115/0103 14015MPS 3100 -SHRA